sensor_id;sensor_type;location;lat;lon;timestamp;pressure;altitude;pressure_sealevel;temperature;humidity
47218;BME280;47282;53.362;-2.222;2022-07-10T00:02:09;102197.06;;;16.18;56.46
47218;BME280;47282;53.362;-2.222;2022-07-10T00:04:37;102200.54;;;16.23;56.37
47218;BME280;47282;53.362;-2.222;2022-07-10T00:07:06;102200.62;;;16.28;56.34
47218;BME280;47282;53.362;-2.222;2022-07-10T00:09:34;102201.31;;;16.31;56.36
47218;BME280;47282;53.362;-2.222;2022-07-10T00:12:02;102200.10;;;16.32;56.49
47218;BME280;47282;53.362;-2.222;2022-07-10T00:14:31;102197.26;;;16.33;56.44
47218;BME280;47282;53.362;-2.222;2022-07-10T00:16:59;102194.42;;;16.11;56.48
47218;BME280;47282;53.362;-2.222;2022-07-10T00:19:27;102195.32;;;16.33;56.49
47218;BME280;47282;53.362;-2.222;2022-07-10T00:21:55;102194.84;;;16.31;56.50
47218;BME280;47282;53.362;-2.222;2022-07-10T00:24:23;102195.08;;;16.28;56.51
47218;BME280;47282;53.362;-2.222;2022-07-10T00:26:52;102191.85;;;16.24;56.44
47218;BME280;47282;53.362;-2.222;2022-07-10T00:29:20;102187.34;;;16.22;56.52
47218;BME280;47282;53.362;-2.222;2022-07-10T00:31:48;102183.92;;;16.16;56.82
47218;BME280;47282;53.362;-2.222;2022-07-10T00:34:16;102180.52;;;16.13;56.90
47218;BME280;47282;53.362;-2.222;2022-07-10T00:36:45;102176.62;;;16.12;57.03
47218;BME280;47282;53.362;-2.222;2022-07-10T00:39:13;102172.09;;;16.11;57.24
47218;BME280;47282;53.362;-2.222;2022-07-10T00:41:41;102171.75;;;16.10;57.40
47218;BME280;47282;53.362;-2.222;2022-07-10T00:44:09;102170.79;;;16.07;57.45
47218;BME280;47282;53.362;-2.222;2022-07-10T00:46:37;102168.98;;;16.04;57.79
47218;BME280;47282;53.362;-2.222;2022-07-10T00:49:06;102167.52;;;16.07;57.64
47218;BME280;47282;53.362;-2.222;2022-07-10T00:51:34;102167.82;;;16.05;57.69
47218;BME280;47282;53.362;-2.222;2022-07-10T00:54:03;102167.49;;;16.05;57.69
47218;BME280;47282;53.362;-2.222;2022-07-10T00:56:32;102164.70;;;16.06;57.67
47218;BME280;47282;53.362;-2.222;2022-07-10T00:59:01;102165.92;;;16.05;57.73
47218;BME280;47282;53.362;-2.222;2022-07-10T01:01:29;102161.15;;;16.33;57.69
47218;BME280;47282;53.362;-2.222;2022-07-10T01:03:57;102159.29;;;16.07;57.68
47218;BME280;47282;53.362;-2.222;2022-07-10T01:06:25;102159.66;;;16.04;57.87
47218;BME280;47282;53.362;-2.222;2022-07-10T01:08:54;102161.58;;;16.02;57.90
47218;BME280;47282;53.362;-2.222;2022-07-10T01:11:22;102160.83;;;16.00;57.92
47218;BME280;47282;53.362;-2.222;2022-07-10T01:13:50;102161.31;;;15.99;57.95
47218;BME280;47282;53.362;-2.222;2022-07-10T01:16:19;102161.13;;;15.98;58.12
47218;BME280;47282;53.362;-2.222;2022-07-10T01:18:47;102155.76;;;16.25;58.02
47218;BME280;47282;53.362;-2.222;2022-07-10T01:21:33;102153.71;;;16.27;58.01
47218;BME280;47282;53.362;-2.222;2022-07-10T01:24:05;102148.88;;;16.30;57.99
47218;BME280;47282;53.362;-2.222;2022-07-10T01:26:35;102141.15;;;16.32;57.97
47218;BME280;47282;53.362;-2.222;2022-07-10T01:29:04;102140.44;;;16.31;57.95
47218;BME280;47282;53.362;-2.222;2022-07-10T01:31:33;102142.49;;;16.01;57.99
47218;BME280;47282;53.362;-2.222;2022-07-10T01:34:05;102143.82;;;15.97;58.05
47218;BME280;47282;53.362;-2.222;2022-07-10T01:36:33;102143.62;;;15.98;58.03
47218;BME280;47282;53.362;-2.222;2022-07-10T01:39:03;102147.68;;;15.95;58.21
47218;BME280;47282;53.362;-2.222;2022-07-10T01:41:31;102144.83;;;15.96;58.21
47218;BME280;47282;53.362;-2.222;2022-07-10T01:43:59;102144.31;;;16.23;58.20
47218;BME280;47282;53.362;-2.222;2022-07-10T01:46:28;102142.71;;;15.96;58.22
47218;BME280;47282;53.362;-2.222;2022-07-10T01:48:57;102137.36;;;16.22;58.23
47218;BME280;47282;53.362;-2.222;2022-07-10T01:51:25;102134.10;;;15.97;58.19
47218;BME280;47282;53.362;-2.222;2022-07-10T01:53:53;102134.50;;;16.00;58.16
47218;BME280;47282;53.362;-2.222;2022-07-10T01:56:21;102133.65;;;15.99;58.09
47218;BME280;47282;53.362;-2.222;2022-07-10T01:58:49;102134.69;;;15.99;58.23
47218;BME280;47282;53.362;-2.222;2022-07-10T02:01:18;102129.48;;;15.98;58.16
47218;BME280;47282;53.362;-2.222;2022-07-10T02:03:46;102129.84;;;16.45;58.16
47218;BME280;47282;53.362;-2.222;2022-07-10T02:06:14;102130.31;;;15.92;58.08
47218;BME280;47282;53.362;-2.222;2022-07-10T02:08:42;102134.40;;;16.18;58.08
47218;BME280;47282;53.362;-2.222;2022-07-10T02:11:10;102131.06;;;16.38;58.10
47218;BME280;47282;53.362;-2.222;2022-07-10T02:13:39;102129.66;;;15.89;58.10
47218;BME280;47282;53.362;-2.222;2022-07-10T02:16:07;102131.98;;;15.87;58.21
47218;BME280;47282;53.362;-2.222;2022-07-10T02:18:35;102132.58;;;16.34;58.19
47218;BME280;47282;53.362;-2.222;2022-07-10T02:21:04;102132.19;;;15.81;58.16
47218;BME280;47282;53.362;-2.222;2022-07-10T02:23:32;102126.98;;;15.74;58.23
47218;BME280;47282;53.362;-2.222;2022-07-10T02:26:01;102127.08;;;15.68;58.20
47218;BME280;47282;53.362;-2.222;2022-07-10T02:28:30;102124.93;;;15.68;58.11
47218;BME280;47282;53.362;-2.222;2022-07-10T02:30:58;102119.43;;;16.12;58.35
47218;BME280;47282;53.362;-2.222;2022-07-10T02:33:26;102113.08;;;16.06;58.40
47218;BME280;47282;53.362;-2.222;2022-07-10T02:35:55;102109.45;;;15.50;58.51
47218;BME280;47282;53.362;-2.222;2022-07-10T02:38:23;102108.43;;;15.96;58.46
47218;BME280;47282;53.362;-2.222;2022-07-10T02:40:51;102105.14;;;15.71;58.54
47218;BME280;47282;53.362;-2.222;2022-07-10T02:43:19;102108.62;;;15.71;58.48
47218;BME280;47282;53.362;-2.222;2022-07-10T02:45:47;102103.00;;;15.42;58.53
47218;BME280;47282;53.362;-2.222;2022-07-10T02:48:16;102103.24;;;15.86;58.62
47218;BME280;47282;53.362;-2.222;2022-07-10T02:50:44;102103.64;;;15.82;58.58
47218;BME280;47282;53.362;-2.222;2022-07-10T02:53:12;102100.27;;;15.56;58.59
47218;BME280;47282;53.362;-2.222;2022-07-10T02:55:40;102103.93;;;15.27;58.57
47218;BME280;47282;53.362;-2.222;2022-07-10T02:58:08;102103.61;;;15.51;58.61
47218;BME280;47282;53.362;-2.222;2022-07-10T03:00:37;102099.02;;;15.67;58.68
47218;BME280;47282;53.362;-2.222;2022-07-10T03:03:05;102095.64;;;15.66;58.65
47218;BME280;47282;53.362;-2.222;2022-07-10T03:05:34;102093.70;;;15.46;58.59
47218;BME280;47282;53.362;-2.222;2022-07-10T03:08:02;102089.85;;;15.43;58.69
47218;BME280;47282;53.362;-2.222;2022-07-10T03:10:30;102087.48;;;15.64;58.62
47218;BME280;47282;53.362;-2.222;2022-07-10T03:12:58;102085.76;;;15.62;58.58
47218;BME280;47282;53.362;-2.222;2022-07-10T03:15:27;102079.76;;;15.61;58.49
47218;BME280;47282;53.362;-2.222;2022-07-10T03:17:55;102079.88;;;15.35;58.61
47218;BME280;47282;53.362;-2.222;2022-07-10T03:20:23;102077.24;;;15.32;58.60
47218;BME280;47282;53.362;-2.222;2022-07-10T03:22:52;102079.13;;;15.53;58.58
47218;BME280;47282;53.362;-2.222;2022-07-10T03:25:20;102078.85;;;15.53;58.60
47218;BME280;47282;53.362;-2.222;2022-07-10T03:27:48;102080.12;;;15.34;58.56
47218;BME280;47282;53.362;-2.222;2022-07-10T03:30:16;102079.24;;;15.56;58.70
47218;BME280;47282;53.362;-2.222;2022-07-10T03:32:44;102073.56;;;15.34;58.62
47218;BME280;47282;53.362;-2.222;2022-07-10T03:35:13;102070.95;;;15.55;58.61
47218;BME280;47282;53.362;-2.222;2022-07-10T03:37:41;102072.56;;;15.34;58.65
47218;BME280;47282;53.362;-2.222;2022-07-10T03:40:10;102075.26;;;15.58;58.71
47218;BME280;47282;53.362;-2.222;2022-07-10T03:42:38;102072.69;;;15.63;58.58
47218;BME280;47282;53.362;-2.222;2022-07-10T03:45:07;102071.37;;;15.43;58.52
47218;BME280;47282;53.362;-2.222;2022-07-10T03:47:35;102075.10;;;15.16;58.55
47218;BME280;47282;53.362;-2.222;2022-07-10T03:50:09;102076.14;;;15.45;58.51
47218;BME280;47282;53.362;-2.222;2022-07-10T03:52:37;102076.52;;;15.71;58.49
47218;BME280;47282;53.362;-2.222;2022-07-10T03:55:06;102077.63;;;15.72;58.63
47218;BME280;47282;53.362;-2.222;2022-07-10T03:57:35;102072.00;;;15.26;58.53
47218;BME280;47282;53.362;-2.222;2022-07-10T04:00:04;102069.72;;;15.29;58.45
47218;BME280;47282;53.362;-2.222;2022-07-10T04:02:32;102063.13;;;15.83;58.36
47218;BME280;47282;53.362;-2.222;2022-07-10T04:05:01;102061.55;;;15.63;58.43
47218;BME280;47282;53.362;-2.222;2022-07-10T04:07:29;102060.61;;;15.88;58.37
47218;BME280;47282;53.362;-2.222;2022-07-10T04:09:57;102059.77;;;15.42;58.30
47218;BME280;47282;53.362;-2.222;2022-07-10T04:12:25;102060.13;;;15.73;58.15
47218;BME280;47282;53.362;-2.222;2022-07-10T04:14:53;102056.91;;;15.73;58.06
47218;BME280;47282;53.362;-2.222;2022-07-10T04:17:22;102055.52;;;15.74;57.95
47218;BME280;47282;53.362;-2.222;2022-07-10T04:19:50;102054.20;;;15.76;57.86
47218;BME280;47282;53.362;-2.222;2022-07-10T04:22:18;102054.83;;;16.02;57.82
47218;BME280;47282;53.362;-2.222;2022-07-10T04:24:46;102057.60;;;15.60;57.76
47218;BME280;47282;53.362;-2.222;2022-07-10T04:27:15;102055.41;;;15.69;57.66
47218;BME280;47282;53.362;-2.222;2022-07-10T04:29:43;102056.05;;;16.08;57.54
47218;BME280;47282;53.362;-2.222;2022-07-10T04:32:11;102057.03;;;15.93;57.42
47218;BME280;47282;53.362;-2.222;2022-07-10T04:34:39;102056.02;;;16.04;57.27
47218;BME280;47282;53.362;-2.222;2022-07-10T04:37:08;102049.64;;;16.15;57.10
47218;BME280;47282;53.362;-2.222;2022-07-10T04:39:36;102046.26;;;16.27;56.98
47218;BME280;47282;53.362;-2.222;2022-07-10T04:42:05;102045.26;;;16.14;56.88
47218;BME280;47282;53.362;-2.222;2022-07-10T04:44:34;102044.19;;;16.49;56.69
47218;BME280;47282;53.362;-2.222;2022-07-10T04:47:03;102041.79;;;16.62;56.53
47218;BME280;47282;53.362;-2.222;2022-07-10T04:49:32;102044.20;;;16.70;56.42
47218;BME280;47282;53.362;-2.222;2022-07-10T04:52:01;102046.81;;;16.56;56.29
47218;BME280;47282;53.362;-2.222;2022-07-10T04:54:30;102044.28;;;16.84;56.19
47218;BME280;47282;53.362;-2.222;2022-07-10T04:56:58;102041.33;;;16.70;56.01
47218;BME280;47282;53.362;-2.222;2022-07-10T04:59:26;102041.33;;;16.55;55.91
47218;BME280;47282;53.362;-2.222;2022-07-10T05:01:54;102038.80;;;16.85;55.71
47218;BME280;47282;53.362;-2.222;2022-07-10T05:04:23;102030.76;;;16.92;55.54
47218;BME280;47282;53.362;-2.222;2022-07-10T05:06:51;102029.95;;;16.99;55.38
47218;BME280;47282;53.362;-2.222;2022-07-10T05:09:19;102030.17;;;17.06;55.19
47218;BME280;47282;53.362;-2.222;2022-07-10T05:11:47;102033.21;;;17.13;55.01
47218;BME280;47282;53.362;-2.222;2022-07-10T05:14:16;102036.32;;;16.93;54.97
47218;BME280;47282;53.362;-2.222;2022-07-10T05:16:44;102040.03;;;16.92;54.94
47218;BME280;47282;53.362;-2.222;2022-07-10T05:19:12;102040.01;;;17.20;54.89
47218;BME280;47282;53.362;-2.222;2022-07-10T05:21:40;102039.24;;;17.06;54.80
47218;BME280;47282;53.362;-2.222;2022-07-10T05:24:08;102036.30;;;17.21;54.59
47218;BME280;47282;53.362;-2.222;2022-07-10T05:26:37;102037.54;;;17.40;54.34
47218;BME280;47282;53.362;-2.222;2022-07-10T05:29:05;102036.62;;;17.41;53.94
47218;BME280;47282;53.362;-2.222;2022-07-10T05:31:33;102033.96;;;17.93;53.56
47218;BME280;47282;53.362;-2.222;2022-07-10T05:34:01;102029.71;;;18.03;53.06
47218;BME280;47282;53.362;-2.222;2022-07-10T05:36:29;102024.20;;;18.46;52.37
47218;BME280;47282;53.362;-2.222;2022-07-10T05:38:58;102027.84;;;18.61;51.89
47218;BME280;47282;53.362;-2.222;2022-07-10T05:41:26;102028.56;;;19.50;51.41
47218;BME280;47282;53.362;-2.222;2022-07-10T05:43:54;102025.45;;;19.49;50.82
47218;BME280;47282;53.362;-2.222;2022-07-10T05:46:22;102025.33;;;20.00;50.22
47218;BME280;47282;53.362;-2.222;2022-07-10T05:48:51;102028.28;;;20.54;49.15
47218;BME280;47282;53.362;-2.222;2022-07-10T05:51:19;102026.46;;;20.80;48.58
47218;BME280;47282;53.362;-2.222;2022-07-10T05:53:47;102029.86;;;20.84;48.52
47218;BME280;47282;53.362;-2.222;2022-07-10T05:56:15;102030.04;;;20.65;48.56
47218;BME280;47282;53.362;-2.222;2022-07-10T05:58:44;102025.74;;;20.70;48.39
47218;BME280;47282;53.362;-2.222;2022-07-10T06:01:12;102027.01;;;20.84;48.43
47218;BME280;47282;53.362;-2.222;2022-07-10T06:03:40;102027.31;;;21.02;48.30
47218;BME280;47282;53.362;-2.222;2022-07-10T06:06:08;102026.37;;;20.77;48.21
47218;BME280;47282;53.362;-2.222;2022-07-10T06:08:37;102026.90;;;20.56;48.08
47218;BME280;47282;53.362;-2.222;2022-07-10T06:11:05;102023.70;;;20.77;47.92
47218;BME280;47282;53.362;-2.222;2022-07-10T06:13:33;102021.07;;;20.35;47.75
47218;BME280;47282;53.362;-2.222;2022-07-10T06:16:01;102020.62;;;20.84;47.39
47218;BME280;47282;53.362;-2.222;2022-07-10T06:18:30;102025.85;;;21.21;47.14
47218;BME280;47282;53.362;-2.222;2022-07-10T06:20:58;102025.51;;;21.25;47.06
47218;BME280;47282;53.362;-2.222;2022-07-10T06:23:26;102024.74;;;21.27;46.67
47218;BME280;47282;53.362;-2.222;2022-07-10T06:25:54;102021.57;;;21.45;46.05
47218;BME280;47282;53.362;-2.222;2022-07-10T06:28:23;102022.48;;;22.44;44.66
47218;BME280;47282;53.362;-2.222;2022-07-10T06:30:51;102027.70;;;23.95;42.88
47218;BME280;47282;53.362;-2.222;2022-07-10T06:33:19;102027.63;;;23.40;43.02
47218;BME280;47282;53.362;-2.222;2022-07-10T06:35:47;102032.24;;;30.63;33.86
47218;BME280;47282;53.362;-2.222;2022-07-10T06:38:16;102040.91;;;34.84;29.60
47218;BME280;47282;53.362;-2.222;2022-07-10T06:40:45;102041.78;;;37.89;26.80
47218;BME280;47282;53.362;-2.222;2022-07-10T06:43:15;102039.59;;;38.23;26.23
47218;BME280;47282;53.362;-2.222;2022-07-10T06:45:44;102035.81;;;40.73;24.28
47218;BME280;47282;53.362;-2.222;2022-07-10T06:48:12;102047.95;;;44.11;21.39
47218;BME280;47282;53.362;-2.222;2022-07-10T06:50:40;102044.23;;;46.34;20.06
47218;BME280;47282;53.362;-2.222;2022-07-10T06:53:09;102041.38;;;48.03;18.67
47218;BME280;47282;53.362;-2.222;2022-07-10T06:55:38;102041.00;;;49.89;17.49
47218;BME280;47282;53.362;-2.222;2022-07-10T06:58:06;102042.10;;;51.21;16.53
47218;BME280;47282;53.362;-2.222;2022-07-10T07:00:34;102040.48;;;52.07;15.81
47218;BME280;47282;53.362;-2.222;2022-07-10T07:03:03;102028.39;;;52.71;15.29
47218;BME280;47282;53.362;-2.222;2022-07-10T07:05:31;102027.01;;;53.24;14.26
47218;BME280;47282;53.362;-2.222;2022-07-10T07:07:59;102025.54;;;53.55;13.87
47218;BME280;47282;53.362;-2.222;2022-07-10T07:10:27;102030.09;;;54.22;13.42
47218;BME280;47282;53.362;-2.222;2022-07-10T07:12:56;102030.39;;;54.83;12.83
47218;BME280;47282;53.362;-2.222;2022-07-10T07:15:24;102033.97;;;55.46;12.01
47218;BME280;47282;53.362;-2.222;2022-07-10T07:17:52;102035.26;;;56.27;11.77
47218;BME280;47282;53.362;-2.222;2022-07-10T07:20:20;102037.65;;;56.42;11.24
47218;BME280;47282;53.362;-2.222;2022-07-10T07:22:48;102036.47;;;56.76;10.72
47218;BME280;47282;53.362;-2.222;2022-07-10T07:25:17;102036.77;;;56.94;10.27
47218;BME280;47282;53.362;-2.222;2022-07-10T07:27:45;102034.23;;;57.24;10.09
47218;BME280;47282;53.362;-2.222;2022-07-10T07:30:14;102029.14;;;57.39;9.75
47218;BME280;47282;53.362;-2.222;2022-07-10T07:32:44;102030.75;;;58.22;9.28
47218;BME280;47282;53.362;-2.222;2022-07-10T07:35:14;102028.32;;;58.60;8.95
47218;BME280;47282;53.362;-2.222;2022-07-10T07:37:51;102027.24;;;58.70;8.43
47218;BME280;47282;53.362;-2.222;2022-07-10T07:40:21;102029.41;;;59.64;8.16
47218;BME280;47282;53.362;-2.222;2022-07-10T07:42:50;102025.23;;;59.10;7.64
47218;BME280;47282;53.362;-2.222;2022-07-10T07:45:19;102024.70;;;59.32;7.43
47218;BME280;47282;53.362;-2.222;2022-07-10T07:47:50;102027.93;;;59.35;7.46
47218;BME280;47282;53.362;-2.222;2022-07-10T07:50:20;102023.00;;;59.30;7.33
47218;BME280;47282;53.362;-2.222;2022-07-10T07:52:49;102015.89;;;59.41;7.13
47218;BME280;47282;53.362;-2.222;2022-07-10T07:55:18;102008.37;;;59.90;7.13
47218;BME280;47282;53.362;-2.222;2022-07-10T07:57:48;102007.81;;;60.29;6.85
47218;BME280;47282;53.362;-2.222;2022-07-10T08:00:20;102008.61;;;60.52;6.58
47218;BME280;47282;53.362;-2.222;2022-07-10T08:02:49;102009.84;;;60.45;6.54
47218;BME280;47282;53.362;-2.222;2022-07-10T08:05:17;102009.24;;;60.81;6.44
47218;BME280;47282;53.362;-2.222;2022-07-10T08:07:48;102005.21;;;61.10;6.22
47218;BME280;47282;53.362;-2.222;2022-07-10T08:10:19;102001.83;;;61.40;6.04
47218;BME280;47282;53.362;-2.222;2022-07-10T08:12:48;101999.54;;;61.27;5.64
47218;BME280;47282;53.362;-2.222;2022-07-10T08:15:18;101992.07;;;61.27;5.63
47218;BME280;47282;53.362;-2.222;2022-07-10T08:17:47;101991.84;;;61.46;5.53
47218;BME280;47282;53.362;-2.222;2022-07-10T08:20:16;101992.36;;;61.48;5.63
47218;BME280;47282;53.362;-2.222;2022-07-10T08:22:44;101993.13;;;61.96;5.48
47218;BME280;47282;53.362;-2.222;2022-07-10T08:25:13;101991.69;;;62.08;5.33
47218;BME280;47282;53.362;-2.222;2022-07-10T08:27:42;101992.34;;;61.65;5.17
47218;BME280;47282;53.362;-2.222;2022-07-10T08:30:11;101987.71;;;61.66;5.01
47218;BME280;47282;53.362;-2.222;2022-07-10T08:32:39;101990.79;;;61.82;5.01
47218;BME280;47282;53.362;-2.222;2022-07-10T08:35:09;101989.16;;;62.00;4.88
47218;BME280;47282;53.362;-2.222;2022-07-10T08:37:38;101984.84;;;62.15;4.72
47218;BME280;47282;53.362;-2.222;2022-07-10T08:40:10;101978.38;;;62.11;4.61
47218;BME280;47282;53.362;-2.222;2022-07-10T08:42:39;101976.18;;;61.76;4.58
47218;BME280;47282;53.362;-2.222;2022-07-10T08:45:08;101970.05;;;62.01;4.66
47218;BME280;47282;53.362;-2.222;2022-07-10T08:47:37;101968.20;;;61.99;4.88
47218;BME280;47282;53.362;-2.222;2022-07-10T08:50:10;101969.98;;;61.94;4.64
47218;BME280;47282;53.362;-2.222;2022-07-10T08:52:45;101967.84;;;61.56;4.50
47218;BME280;47282;53.362;-2.222;2022-07-10T08:55:16;101961.35;;;61.75;4.50
47218;BME280;47282;53.362;-2.222;2022-07-10T08:57:44;101964.38;;;61.30;4.53
47218;BME280;47282;53.362;-2.222;2022-07-10T09:00:13;101964.72;;;61.76;4.50
47218;BME280;47282;53.362;-2.222;2022-07-10T09:02:42;101965.51;;;61.31;4.62
47218;BME280;47282;53.362;-2.222;2022-07-10T09:05:10;101961.99;;;61.51;4.66
47218;BME280;47282;53.362;-2.222;2022-07-10T09:07:38;101954.05;;;61.39;4.71
47218;BME280;47282;53.362;-2.222;2022-07-10T09:10:08;101956.25;;;61.23;4.52
47218;BME280;47282;53.362;-2.222;2022-07-10T09:12:54;101961.27;;;60.89;4.51
47218;BME280;47282;53.362;-2.222;2022-07-10T09:15:24;101960.44;;;61.00;4.55
47218;BME280;47282;53.362;-2.222;2022-07-10T09:17:54;101958.90;;;60.89;4.49
47218;BME280;47282;53.362;-2.222;2022-07-10T09:20:25;101957.42;;;60.78;4.59
47218;BME280;47282;53.362;-2.222;2022-07-10T09:22:54;101956.28;;;60.36;4.50
47218;BME280;47282;53.362;-2.222;2022-07-10T09:25:22;101955.06;;;60.33;4.49
47218;BME280;47282;53.362;-2.222;2022-07-10T09:27:52;101948.03;;;60.36;4.66
47218;BME280;47282;53.362;-2.222;2022-07-10T09:30:38;101945.64;;;60.29;4.74
47218;BME280;47282;53.362;-2.222;2022-07-10T09:33:23;101941.03;;;60.13;4.78
47218;BME280;47282;53.362;-2.222;2022-07-10T09:35:56;101940.87;;;59.72;4.71
47218;BME280;47282;53.362;-2.222;2022-07-10T09:38:24;101938.77;;;59.71;4.90
47218;BME280;47282;53.362;-2.222;2022-07-10T09:40:52;101937.92;;;59.36;4.91
47218;BME280;47282;53.362;-2.222;2022-07-10T09:43:21;101929.26;;;59.62;5.00
47218;BME280;47282;53.362;-2.222;2022-07-10T09:45:49;101928.76;;;59.49;4.90
47218;BME280;47282;53.362;-2.222;2022-07-10T09:48:23;101924.76;;;58.89;5.07
47218;BME280;47282;53.362;-2.222;2022-07-10T09:50:51;101921.29;;;59.16;5.03
47218;BME280;47282;53.362;-2.222;2022-07-10T09:53:20;101918.29;;;58.97;5.08
47218;BME280;47282;53.362;-2.222;2022-07-10T09:55:48;101918.75;;;58.85;4.98
47218;BME280;47282;53.362;-2.222;2022-07-10T09:58:24;101912.74;;;58.47;5.19
47218;BME280;47282;53.362;-2.222;2022-07-10T10:00:58;101909.33;;;58.64;5.44
47218;BME280;47282;53.362;-2.222;2022-07-10T10:03:28;101903.49;;;58.27;5.57
47218;BME280;47282;53.362;-2.222;2022-07-10T10:06:03;101898.06;;;57.97;5.54
47218;BME280;47282;53.362;-2.222;2022-07-10T10:08:37;101896.12;;;57.94;5.60
47218;BME280;47282;53.362;-2.222;2022-07-10T10:11:14;101893.58;;;57.58;5.78
47218;BME280;47282;53.362;-2.222;2022-07-10T10:13:43;101891.96;;;57.31;5.85
47218;BME280;47282;53.362;-2.222;2022-07-10T10:16:11;101889.10;;;56.68;5.96
47218;BME280;47282;53.362;-2.222;2022-07-10T10:18:43;101886.81;;;56.34;6.15
47218;BME280;47282;53.362;-2.222;2022-07-10T10:21:11;101887.08;;;56.21;6.16
47218;BME280;47282;53.362;-2.222;2022-07-10T10:23:40;101879.63;;;55.67;6.27
47218;BME280;47282;53.362;-2.222;2022-07-10T10:26:09;101877.77;;;55.32;6.49
47218;BME280;47282;53.362;-2.222;2022-07-10T10:28:37;101879.31;;;54.78;6.67
47218;BME280;47282;53.362;-2.222;2022-07-10T10:31:09;101880.67;;;54.19;6.80
47218;BME280;47282;53.362;-2.222;2022-07-10T10:33:43;101879.97;;;53.74;6.95
47218;BME280;47282;53.362;-2.222;2022-07-10T10:36:13;101876.61;;;53.71;7.21
47218;BME280;47282;53.362;-2.222;2022-07-10T10:39:00;101874.27;;;53.44;7.32
47218;BME280;47282;53.362;-2.222;2022-07-10T10:41:36;101870.98;;;52.88;7.49
47218;BME280;47282;53.362;-2.222;2022-07-10T10:44:23;101862.38;;;52.46;7.58
47218;BME280;47282;53.362;-2.222;2022-07-10T10:46:57;101861.06;;;52.04;7.80
47218;BME280;47282;53.362;-2.222;2022-07-10T10:49:25;101857.20;;;51.85;7.99
47218;BME280;47282;53.362;-2.222;2022-07-10T10:51:58;101850.56;;;51.54;8.17
47218;BME280;47282;53.362;-2.222;2022-07-10T10:54:28;101854.73;;;51.36;8.28
47218;BME280;47282;53.362;-2.222;2022-07-10T10:57:13;101849.09;;;51.11;8.48
47218;BME280;47282;53.362;-2.222;2022-07-10T10:59:45;101847.72;;;50.54;8.64
47218;BME280;47282;53.362;-2.222;2022-07-10T11:02:22;101845.59;;;50.22;8.83
47218;BME280;47282;53.362;-2.222;2022-07-10T11:04:51;101842.49;;;49.85;9.01
47218;BME280;47282;53.362;-2.222;2022-07-10T11:07:52;101842.90;;;49.58;9.21
47218;BME280;47282;53.362;-2.222;2022-07-10T11:10:27;101846.88;;;49.70;9.31
47218;BME280;47282;53.362;-2.222;2022-07-10T11:12:58;101860.63;;;49.57;9.39
47218;BME280;47282;53.362;-2.222;2022-07-10T11:15:27;101861.76;;;49.58;9.51
47218;BME280;47282;53.362;-2.222;2022-07-10T11:17:56;101863.27;;;49.47;9.61
47218;BME280;47282;53.362;-2.222;2022-07-10T11:20:24;101862.68;;;49.25;9.68
47218;BME280;47282;53.362;-2.222;2022-07-10T11:23:21;101855.94;;;49.18;9.91
47218;BME280;47282;53.362;-2.222;2022-07-10T11:25:59;101860.77;;;49.02;10.02
47218;BME280;47282;53.362;-2.222;2022-07-10T11:28:41;101847.57;;;48.69;10.07
47218;BME280;47282;53.362;-2.222;2022-07-10T11:31:10;101842.81;;;48.49;10.26
47218;BME280;47282;53.362;-2.222;2022-07-10T11:33:40;101832.87;;;48.32;10.34
47218;BME280;47282;53.362;-2.222;2022-07-10T11:36:11;101829.68;;;48.10;10.43
47218;BME280;47282;53.362;-2.222;2022-07-10T11:38:40;101820.58;;;48.16;10.49
47218;BME280;47282;53.362;-2.222;2022-07-10T11:41:15;101818.63;;;47.94;10.54
47218;BME280;47282;53.362;-2.222;2022-07-10T11:43:48;101819.52;;;47.87;10.61
47218;BME280;47282;53.362;-2.222;2022-07-10T11:46:17;101816.38;;;47.27;10.66
47218;BME280;47282;53.362;-2.222;2022-07-10T11:48:46;101816.78;;;47.09;10.75
47218;BME280;47282;53.362;-2.222;2022-07-10T11:51:18;101817.05;;;46.75;10.85
47218;BME280;47282;53.362;-2.222;2022-07-10T11:53:57;101813.65;;;46.51;10.99
47218;BME280;47282;53.362;-2.222;2022-07-10T11:56:27;101817.74;;;46.19;11.07
47218;BME280;47282;53.362;-2.222;2022-07-10T11:58:58;101814.52;;;46.42;11.18
47218;BME280;47282;53.362;-2.222;2022-07-10T12:01:28;101811.59;;;46.10;11.30
47218;BME280;47282;53.362;-2.222;2022-07-10T12:03:59;101809.01;;;45.74;11.45
47218;BME280;47282;53.362;-2.222;2022-07-10T12:06:28;101804.45;;;45.72;11.56
47218;BME280;47282;53.362;-2.222;2022-07-10T12:09:02;101809.14;;;45.48;11.68
47218;BME280;47282;53.362;-2.222;2022-07-10T12:11:30;101804.55;;;45.42;11.74
47218;BME280;47282;53.362;-2.222;2022-07-10T12:14:17;101797.05;;;44.89;11.80
47218;BME280;47282;53.362;-2.222;2022-07-10T12:16:49;101795.15;;;44.63;12.00
47218;BME280;47282;53.362;-2.222;2022-07-10T12:19:18;101795.72;;;44.17;12.19
47218;BME280;47282;53.362;-2.222;2022-07-10T12:21:47;101789.69;;;43.77;12.39
47218;BME280;47282;53.362;-2.222;2022-07-10T12:24:17;101786.89;;;43.11;12.63
47218;BME280;47282;53.362;-2.222;2022-07-10T12:26:47;101781.40;;;42.16;13.20
47218;BME280;47282;53.362;-2.222;2022-07-10T12:29:20;101784.42;;;39.78;14.48
47218;BME280;47282;53.362;-2.222;2022-07-10T12:31:51;101780.14;;;39.31;14.88
47218;BME280;47282;53.362;-2.222;2022-07-10T12:34:19;101780.10;;;39.12;15.20
47218;BME280;47282;53.362;-2.222;2022-07-10T12:36:49;101778.79;;;38.35;15.35
47218;BME280;47282;53.362;-2.222;2022-07-10T12:39:19;101778.47;;;38.75;15.40
47218;BME280;47282;53.362;-2.222;2022-07-10T12:42:05;101776.44;;;38.27;15.44
47218;BME280;47282;53.362;-2.222;2022-07-10T12:44:36;101781.27;;;38.06;15.61
47218;BME280;47282;53.362;-2.222;2022-07-10T12:47:06;101780.69;;;38.02;15.85
47218;BME280;47282;53.362;-2.222;2022-07-10T12:49:53;101784.48;;;37.72;16.01
47218;BME280;47282;53.362;-2.222;2022-07-10T12:52:24;101788.26;;;37.50;16.16
47218;BME280;47282;53.362;-2.222;2022-07-10T12:55:12;101785.16;;;37.34;16.36
47218;BME280;47282;53.362;-2.222;2022-07-10T12:57:49;101776.91;;;37.25;16.45